METAR AND TAF INFORMATION
METAR FOR OMDB
ADDS - METARS form results

(1038 UTC 22 April 2018)
Data provider http://aviationweather.gov/adds/metars/
 
METAR text: OMDB 221000Z 32011KT 8000 NSC 34/16 Q1009 NOSIG
Conditions at: OMDB (DUBAI INTL AIRPO, AE) observed 1000 UTC 22 April 2018
Temperature: 34.0°C (93°F)
Dewpoint: 16.0°C (61°F) [RH = 34%]
Pressure (altimeter): 29.79 inches Hg (1009.0 mb)
Winds: from the NW (320 degrees) at 13 MPH (11 knots; 5.7 m/s)
Visibility: 5 miles (8 km)
Ceiling: at least 12,000 feet AGL
Clouds: sky clear below 12,000 feet AGL
Weather: no significant weather observed at this time

Forecast for: OMDB (DUBAI INTL AIRPO, AE)
Text: TAF OMDB 220459Z 2206/2312 15009KT 8000 NSC
Forecast period: 0600 to 0800 UTC 22 April 2018
Forecast type: FROM: standard forecast or significant change
Winds: from the SSE (150 degrees) at 10 MPH (9 knots; 4.7 m/s)
Visibility: 5 miles (8 km)
Clouds: not forecast
Weather: no significant weather forecast for this period
Forecast for: OMDB (DUBAI INTL AIRPO, AE)
Text: TAF OMDB 220459Z 2206/2312 15009KT 8000 NSC
Forecast period: 0600 to 0800 UTC 22 April 2018
Forecast type: FROM: standard forecast or significant change
Winds: from the SSE (150 degrees) at 10 MPH (9 knots; 4.7 m/s)
Visibility: 5 miles (8 km)
Clouds: not forecast
Weather: no significant weather forecast for this period
Forecast for: OMDB (DUBAI INTL AIRPO, AE)
Text: TAF OMDB 220459Z 2206/2312 15009KT 8000 NSC
Forecast period: 0800 to 1500 UTC 22 April 2018
Forecast type: BECOMING: Conditions expected to become as follows by 1000 UTC 22 April 2018
Winds: from the NNW (340 degrees) at 14 MPH (12 knots; 6.2 m/s)
Visibility: 5 miles (8 km)
Weather: no significant weather forecast for this period
Forecast for: OMDB (DUBAI INTL AIRPO, AE)
Text: TAF OMDB 220459Z 2206/2312 15009KT 8000 NSC
Forecast period: 0800 to 1500 UTC 22 April 2018
Forecast type: BECOMING: Conditions expected to become as follows by 1000 UTC 22 April 2018
Winds: from the NNW (340 degrees) at 14 MPH (12 knots; 6.2 m/s)
Visibility: 5 miles (8 km)
Weather: no significant weather forecast for this period
Forecast for: OMDB (DUBAI INTL AIRPO, AE)
Text: TAF OMDB 220459Z 2206/2312 15009KT 8000 NSC
Forecast period: 1500 UTC 22 April 2018 to 0200 UTC 23 April 2018
Forecast type: BECOMING: Conditions expected to become as follows by 1700 UTC 22 April 2018
Winds: from the E (80 degrees) at 6 MPH (5 knots; 2.6 m/s)
Visibility: 5 miles (8 km)
Weather: no significant weather forecast for this period
Forecast for: OMDB (DUBAI INTL AIRPO, AE)
Text: TAF OMDB 220459Z 2206/2312 15009KT 8000 NSC
Forecast period: 1500 UTC 22 April 2018 to 0200 UTC 23 April 2018
Forecast type: BECOMING: Conditions expected to become as follows by 1700 UTC 22 April 2018
Winds: from the E (80 degrees) at 6 MPH (5 knots; 2.6 m/s)
Visibility: 5 miles (8 km)
Weather: no significant weather forecast for this period
Forecast for: OMDB (DUBAI INTL AIRPO, AE)
Text: TAF OMDB 220459Z 2206/2312 15009KT 8000 NSC
Forecast period: 0200 to 0900 UTC 23 April 2018
Forecast type: BECOMING: Conditions expected to become as follows by 0400 UTC 23 April 2018
Winds: from the S (170 degrees) at 14 MPH (12 knots; 6.2 m/s)
Visibility: 5 miles (8 km)
Weather: no significant weather forecast for this period
Forecast for: OMDB (DUBAI INTL AIRPO, AE)
Text: TAF OMDB 220459Z 2206/2312 15009KT 8000 NSC
Forecast period: 0200 to 0900 UTC 23 April 2018
Forecast type: BECOMING: Conditions expected to become as follows by 0400 UTC 23 April 2018
Winds: from the S (170 degrees) at 14 MPH (12 knots; 6.2 m/s)
Visibility: 5 miles (8 km)
Weather: no significant weather forecast for this period
Forecast for: OMDB (DUBAI INTL AIRPO, AE)
Text: TAF OMDB 220459Z 2206/2312 15009KT 8000 NSC
Forecast period: 0900 to 1200 UTC 23 April 2018
Forecast type: BECOMING: Conditions expected to become as follows by 1100 UTC 23 April 2018
Winds: from the N (350 degrees) at 16 MPH (14 knots; 7.3 m/s)
Visibility: 5 miles (8 km)
Weather: no significant weather forecast for this period
Forecast for: OMDB (DUBAI INTL AIRPO, AE)
Text: TAF OMDB 220459Z 2206/2312 15009KT 8000 NSC
Forecast period: 0900 to 1200 UTC 23 April 2018
Forecast type: BECOMING: Conditions expected to become as follows by 1100 UTC 23 April 2018
Winds: from the N (350 degrees) at 16 MPH (14 knots; 7.3 m/s)
Visibility: 5 miles (8 km)
Weather: no significant weather forecast for this period

 AIRPORT MAP

 RUNWAY INFORMATION
Runway 12L Runway length 13124 ft Runway width 197 ft
Runway elevation 13 ft Runway displaced threshold 1312 ft Runway heading 122
Runway 30R Runway length 13124 ft Runway width 197 ft
Runway elevation 34 ft Runway displaced threshold 0 ft Runway heading 302
Runway 12R Runway length 13124 ft Runway width 151 ft
Runway elevation 13 ft Runway displaced threshold 394 ft Runway heading 121
Runway 30L Runway length 13124 ft Runway width 151 ft
Runway elevation 34 ft Runway displaced threshold 2953 ft Runway heading 301

 AIRPORT FREQUENCIES
Type ARR Name ARR Frequency 124.9 MHZ
Type ATIS Name ATIS Frequency 131.7 MHZ
Type DEP Name DEP Frequency 124.45 MHZ
Type GND Name GND Frequency 118.35 MHZ
Type TWR Name TWR Frequency 118.75 MHZ

 AIRPORT NEAR NAVIGATION AIDS
Type VOR-DME Name Dubai Frequency 115700 KHZ



Copyright @ Iran Aseman Virtual Airline